sensor_id;sensor_type;location;lat;lon;timestamp;P1;durP1;ratioP1;P2;durP2;ratioP2
10335;SDS011;5213;53.548;9.930;2023-08-08T00:00:46;5.72;;;2.25;;
10335;SDS011;5213;53.548;9.930;2023-08-08T00:03:12;3.38;;;1.90;;
10335;SDS011;5213;53.548;9.930;2023-08-08T00:05:38;4.45;;;2.10;;
10335;SDS011;5213;53.548;9.930;2023-08-08T00:08:04;4.05;;;2.22;;
10335;SDS011;5213;53.548;9.930;2023-08-08T00:10:30;3.30;;;2.05;;
10335;SDS011;5213;53.548;9.930;2023-08-08T00:12:56;6.78;;;2.63;;
10335;SDS011;5213;53.548;9.930;2023-08-08T00:15:22;5.15;;;2.22;;
10335;SDS011;5213;53.548;9.930;2023-08-08T00:17:48;7.85;;;2.75;;
10335;SDS011;5213;53.548;9.930;2023-08-08T00:20:14;4.32;;;2.33;;
10335;SDS011;5213;53.548;9.930;2023-08-08T00:22:40;5.32;;;2.75;;
10335;SDS011;5213;53.548;9.930;2023-08-08T00:25:06;6.10;;;2.60;;
10335;SDS011;5213;53.548;9.930;2023-08-08T00:27:33;8.48;;;2.65;;
10335;SDS011;5213;53.548;9.930;2023-08-08T00:30:00;5.95;;;2.50;;
10335;SDS011;5213;53.548;9.930;2023-08-08T00:32:26;4.47;;;2.47;;
10335;SDS011;5213;53.548;9.930;2023-08-08T00:34:52;5.20;;;2.70;;
10335;SDS011;5213;53.548;9.930;2023-08-08T00:37:18;5.75;;;2.50;;
10335;SDS011;5213;53.548;9.930;2023-08-08T00:39:44;6.47;;;3.05;;
10335;SDS011;5213;53.548;9.930;2023-08-08T00:42:11;4.07;;;2.55;;
10335;SDS011;5213;53.548;9.930;2023-08-08T00:44:37;4.75;;;2.42;;
10335;SDS011;5213;53.548;9.930;2023-08-08T00:47:05;5.03;;;2.70;;
10335;SDS011;5213;53.548;9.930;2023-08-08T00:49:31;3.03;;;2.67;;
10335;SDS011;5213;53.548;9.930;2023-08-08T00:51:57;10.25;;;3.22;;
10335;SDS011;5213;53.548;9.930;2023-08-08T00:54:23;4.60;;;2.60;;
10335;SDS011;5213;53.548;9.930;2023-08-08T00:56:49;7.30;;;2.85;;
10335;SDS011;5213;53.548;9.930;2023-08-08T00:59:15;2.85;;;2.40;;
10335;SDS011;5213;53.548;9.930;2023-08-08T01:01:42;5.00;;;2.60;;
10335;SDS011;5213;53.548;9.930;2023-08-08T01:04:08;3.38;;;2.60;;
10335;SDS011;5213;53.548;9.930;2023-08-08T01:09:11;4.40;;;2.63;;
10335;SDS011;5213;53.548;9.930;2023-08-08T01:11:38;5.45;;;2.70;;
10335;SDS011;5213;53.548;9.930;2023-08-08T01:14:05;3.40;;;2.25;;
10335;SDS011;5213;53.548;9.930;2023-08-08T01:16:33;3.78;;;2.42;;
10335;SDS011;5213;53.548;9.930;2023-08-08T01:18:59;3.63;;;2.40;;
10335;SDS011;5213;53.548;9.930;2023-08-08T01:21:25;5.72;;;2.40;;
10335;SDS011;5213;53.548;9.930;2023-08-08T01:23:54;3.38;;;2.30;;
10335;SDS011;5213;53.548;9.930;2023-08-08T01:26:22;4.70;;;2.28;;
10335;SDS011;5213;53.548;9.930;2023-08-08T01:28:48;5.95;;;2.40;;
10335;SDS011;5213;53.548;9.930;2023-08-08T01:31:14;3.92;;;2.50;;
10335;SDS011;5213;53.548;9.930;2023-08-08T01:33:40;5.95;;;2.35;;
10335;SDS011;5213;53.548;9.930;2023-08-08T01:36:13;3.58;;;2.20;;
10335;SDS011;5213;53.548;9.930;2023-08-08T01:38:45;4.60;;;2.30;;
10335;SDS011;5213;53.548;9.930;2023-08-08T01:41:13;7.35;;;2.47;;
10335;SDS011;5213;53.548;9.930;2023-08-08T01:43:39;4.85;;;2.50;;
10335;SDS011;5213;53.548;9.930;2023-08-08T01:46:06;5.57;;;2.40;;
10335;SDS011;5213;53.548;9.930;2023-08-08T01:48:32;4.28;;;2.20;;
10335;SDS011;5213;53.548;9.930;2023-08-08T01:50:58;5.43;;;2.17;;
10335;SDS011;5213;53.548;9.930;2023-08-08T01:53:24;3.70;;;2.00;;
10335;SDS011;5213;53.548;9.930;2023-08-08T01:55:51;6.00;;;2.38;;
10335;SDS011;5213;53.548;9.930;2023-08-08T01:58:17;4.18;;;2.65;;
10335;SDS011;5213;53.548;9.930;2023-08-08T02:00:43;2.53;;;1.90;;
10335;SDS011;5213;53.548;9.930;2023-08-08T02:03:11;5.13;;;2.03;;
10335;SDS011;5213;53.548;9.930;2023-08-08T02:05:37;2.55;;;1.85;;
10335;SDS011;5213;53.548;9.930;2023-08-08T02:08:03;6.07;;;2.30;;
10335;SDS011;5213;53.548;9.930;2023-08-08T02:10:30;4.72;;;1.92;;
10335;SDS011;5213;53.548;9.930;2023-08-08T02:12:56;3.10;;;1.77;;
10335;SDS011;5213;53.548;9.930;2023-08-08T02:15:22;2.35;;;1.60;;
10335;SDS011;5213;53.548;9.930;2023-08-08T02:17:49;3.33;;;2.00;;
10335;SDS011;5213;53.548;9.930;2023-08-08T02:20:16;4.43;;;2.00;;
10335;SDS011;5213;53.548;9.930;2023-08-08T02:22:43;3.20;;;1.58;;
10335;SDS011;5213;53.548;9.930;2023-08-08T02:25:09;2.90;;;1.73;;
10335;SDS011;5213;53.548;9.930;2023-08-08T02:27:35;2.38;;;1.70;;
10335;SDS011;5213;53.548;9.930;2023-08-08T02:30:01;2.20;;;1.83;;
10335;SDS011;5213;53.548;9.930;2023-08-08T02:32:27;1.73;;;1.42;;
10335;SDS011;5213;53.548;9.930;2023-08-08T02:34:53;2.38;;;1.60;;
10335;SDS011;5213;53.548;9.930;2023-08-08T02:37:19;2.03;;;1.67;;
10335;SDS011;5213;53.548;9.930;2023-08-08T02:39:45;3.17;;;1.63;;
10335;SDS011;5213;53.548;9.930;2023-08-08T02:42:11;6.13;;;1.95;;
10335;SDS011;5213;53.548;9.930;2023-08-08T02:44:37;3.60;;;2.00;;
10335;SDS011;5213;53.548;9.930;2023-08-08T02:47:03;5.32;;;1.90;;
10335;SDS011;5213;53.548;9.930;2023-08-08T02:49:29;3.50;;;1.80;;
10335;SDS011;5213;53.548;9.930;2023-08-08T02:51:55;1.92;;;1.63;;
10335;SDS011;5213;53.548;9.930;2023-08-08T02:54:21;3.25;;;1.80;;
10335;SDS011;5213;53.548;9.930;2023-08-08T02:56:47;2.22;;;1.90;;
10335;SDS011;5213;53.548;9.930;2023-08-08T02:59:13;2.35;;;1.70;;
10335;SDS011;5213;53.548;9.930;2023-08-08T03:01:39;3.38;;;2.00;;
10335;SDS011;5213;53.548;9.930;2023-08-08T03:04:05;4.40;;;1.70;;
10335;SDS011;5213;53.548;9.930;2023-08-08T03:06:32;3.92;;;1.67;;
10335;SDS011;5213;53.548;9.930;2023-08-08T03:08:58;4.28;;;1.83;;
10335;SDS011;5213;53.548;9.930;2023-08-08T03:11:24;3.05;;;1.83;;
10335;SDS011;5213;53.548;9.930;2023-08-08T03:13:49;4.32;;;1.73;;
10335;SDS011;5213;53.548;9.930;2023-08-08T03:16:15;4.18;;;1.77;;
10335;SDS011;5213;53.548;9.930;2023-08-08T03:18:41;5.13;;;1.75;;
10335;SDS011;5213;53.548;9.930;2023-08-08T03:21:07;4.47;;;1.90;;
10335;SDS011;5213;53.548;9.930;2023-08-08T03:23:33;3.75;;;1.92;;
10335;SDS011;5213;53.548;9.930;2023-08-08T03:25:59;4.32;;;1.80;;
10335;SDS011;5213;53.548;9.930;2023-08-08T03:28:25;1.95;;;1.48;;
10335;SDS011;5213;53.548;9.930;2023-08-08T03:30:51;1.75;;;1.50;;
10335;SDS011;5213;53.548;9.930;2023-08-08T03:33:17;3.42;;;1.60;;
10335;SDS011;5213;53.548;9.930;2023-08-08T03:35:43;4.60;;;1.73;;
10335;SDS011;5213;53.548;9.930;2023-08-08T03:38:09;2.85;;;1.70;;
10335;SDS011;5213;53.548;9.930;2023-08-08T03:40:35;2.60;;;1.80;;
10335;SDS011;5213;53.548;9.930;2023-08-08T03:43:01;5.18;;;1.73;;
10335;SDS011;5213;53.548;9.930;2023-08-08T03:45:28;3.28;;;1.80;;
10335;SDS011;5213;53.548;9.930;2023-08-08T03:47:54;2.15;;;1.83;;
10335;SDS011;5213;53.548;9.930;2023-08-08T03:50:20;10.98;;;2.33;;
10335;SDS011;5213;53.548;9.930;2023-08-08T03:52:46;2.28;;;1.80;;
10335;SDS011;5213;53.548;9.930;2023-08-08T03:55:12;3.92;;;2.08;;
10335;SDS011;5213;53.548;9.930;2023-08-08T03:57:38;2.60;;;1.90;;
10335;SDS011;5213;53.548;9.930;2023-08-08T04:00:04;2.35;;;1.88;;
10335;SDS011;5213;53.548;9.930;2023-08-08T04:02:33;3.00;;;1.98;;
10335;SDS011;5213;53.548;9.930;2023-08-08T04:04:59;3.15;;;1.75;;
10335;SDS011;5213;53.548;9.930;2023-08-08T04:07:25;2.13;;;1.70;;
10335;SDS011;5213;53.548;9.930;2023-08-08T04:09:51;5.20;;;2.47;;
10335;SDS011;5213;53.548;9.930;2023-08-08T04:12:17;1.73;;;1.60;;
10335;SDS011;5213;53.548;9.930;2023-08-08T04:14:43;3.78;;;2.08;;
10335;SDS011;5213;53.548;9.930;2023-08-08T04:17:09;4.03;;;1.90;;
10335;SDS011;5213;53.548;9.930;2023-08-08T04:19:35;3.78;;;1.98;;
10335;SDS011;5213;53.548;9.930;2023-08-08T04:22:01;1.95;;;1.83;;
10335;SDS011;5213;53.548;9.930;2023-08-08T04:24:27;1.70;;;1.58;;
10335;SDS011;5213;53.548;9.930;2023-08-08T04:26:53;3.55;;;2.00;;
10335;SDS011;5213;53.548;9.930;2023-08-08T04:29:19;3.33;;;1.60;;
10335;SDS011;5213;53.548;9.930;2023-08-08T04:31:45;2.63;;;1.90;;
10335;SDS011;5213;53.548;9.930;2023-08-08T04:34:11;1.88;;;1.67;;
10335;SDS011;5213;53.548;9.930;2023-08-08T04:36:37;1.98;;;1.80;;
10335;SDS011;5213;53.548;9.930;2023-08-08T04:39:03;2.03;;;1.75;;
10335;SDS011;5213;53.548;9.930;2023-08-08T04:41:29;3.05;;;2.00;;
10335;SDS011;5213;53.548;9.930;2023-08-08T04:43:55;3.08;;;2.00;;
10335;SDS011;5213;53.548;9.930;2023-08-08T04:46:21;2.42;;;2.13;;
10335;SDS011;5213;53.548;9.930;2023-08-08T04:48:47;2.00;;;1.70;;
10335;SDS011;5213;53.548;9.930;2023-08-08T04:51:13;2.35;;;1.70;;
10335;SDS011;5213;53.548;9.930;2023-08-08T04:53:39;2.08;;;1.80;;
10335;SDS011;5213;53.548;9.930;2023-08-08T04:56:05;3.55;;;1.67;;
10335;SDS011;5213;53.548;9.930;2023-08-08T04:58:31;1.90;;;1.58;;
10335;SDS011;5213;53.548;9.930;2023-08-08T05:00:57;2.05;;;1.60;;
10335;SDS011;5213;53.548;9.930;2023-08-08T05:03:23;2.13;;;1.70;;
10335;SDS011;5213;53.548;9.930;2023-08-08T05:05:49;2.10;;;1.90;;
10335;SDS011;5213;53.548;9.930;2023-08-08T05:08:16;2.47;;;1.70;;
10335;SDS011;5213;53.548;9.930;2023-08-08T05:10:42;1.58;;;1.50;;
10335;SDS011;5213;53.548;9.930;2023-08-08T05:13:08;4.57;;;1.90;;
10335;SDS011;5213;53.548;9.930;2023-08-08T05:15:35;2.08;;;1.70;;
10335;SDS011;5213;53.548;9.930;2023-08-08T05:18:01;2.88;;;1.90;;
10335;SDS011;5213;53.548;9.930;2023-08-08T05:20:27;1.83;;;1.73;;
10335;SDS011;5213;53.548;9.930;2023-08-08T05:22:53;5.65;;;1.50;;
10335;SDS011;5213;53.548;9.930;2023-08-08T05:25:19;3.33;;;1.65;;
10335;SDS011;5213;53.548;9.930;2023-08-08T05:27:45;2.88;;;1.67;;
10335;SDS011;5213;53.548;9.930;2023-08-08T05:30:12;3.58;;;1.67;;
10335;SDS011;5213;53.548;9.930;2023-08-08T05:32:38;2.88;;;1.60;;
10335;SDS011;5213;53.548;9.930;2023-08-08T05:35:04;4.55;;;1.80;;
10335;SDS011;5213;53.548;9.930;2023-08-08T05:37:30;4.13;;;1.70;;
10335;SDS011;5213;53.548;9.930;2023-08-08T05:39:56;1.65;;;1.30;;
10335;SDS011;5213;53.548;9.930;2023-08-08T05:42:22;1.50;;;1.40;;
10335;SDS011;5213;53.548;9.930;2023-08-08T05:44:48;1.52;;;1.38;;
10335;SDS011;5213;53.548;9.930;2023-08-08T05:47:14;4.97;;;1.60;;
10335;SDS011;5213;53.548;9.930;2023-08-08T05:49:40;3.95;;;1.40;;
10335;SDS011;5213;53.548;9.930;2023-08-08T05:52:07;2.03;;;1.30;;
10335;SDS011;5213;53.548;9.930;2023-08-08T05:54:33;2.60;;;1.25;;
10335;SDS011;5213;53.548;9.930;2023-08-08T05:56:59;1.73;;;1.60;;
10335;SDS011;5213;53.548;9.930;2023-08-08T05:59:25;2.05;;;1.40;;
10335;SDS011;5213;53.548;9.930;2023-08-08T06:01:51;4.00;;;1.75;;
10335;SDS011;5213;53.548;9.930;2023-08-08T06:04:17;2.25;;;1.38;;
10335;SDS011;5213;53.548;9.930;2023-08-08T06:06:43;3.38;;;1.80;;
10335;SDS011;5213;53.548;9.930;2023-08-08T06:09:09;4.28;;;1.90;;
10335;SDS011;5213;53.548;9.930;2023-08-08T06:11:35;3.15;;;1.77;;
10335;SDS011;5213;53.548;9.930;2023-08-08T06:14:02;2.00;;;1.70;;
10335;SDS011;5213;53.548;9.930;2023-08-08T06:16:28;2.65;;;2.05;;
10335;SDS011;5213;53.548;9.930;2023-08-08T06:18:54;1.85;;;1.60;;
10335;SDS011;5213;53.548;9.930;2023-08-08T06:21:20;2.13;;;1.92;;
10335;SDS011;5213;53.548;9.930;2023-08-08T06:23:46;2.10;;;1.85;;
10335;SDS011;5213;53.548;9.930;2023-08-08T06:26:12;2.15;;;1.95;;
10335;SDS011;5213;53.548;9.930;2023-08-08T06:28:39;3.65;;;1.80;;
10335;SDS011;5213;53.548;9.930;2023-08-08T06:31:05;2.85;;;2.00;;
10335;SDS011;5213;53.548;9.930;2023-08-08T06:33:31;3.47;;;1.83;;
10335;SDS011;5213;53.548;9.930;2023-08-08T06:35:57;1.95;;;1.83;;
10335;SDS011;5213;53.548;9.930;2023-08-08T06:38:23;1.95;;;1.50;;
10335;SDS011;5213;53.548;9.930;2023-08-08T06:40:49;2.92;;;1.88;;
10335;SDS011;5213;53.548;9.930;2023-08-08T06:43:15;2.17;;;2.00;;
10335;SDS011;5213;53.548;9.930;2023-08-08T06:45:41;5.70;;;1.90;;
10335;SDS011;5213;53.548;9.930;2023-08-08T06:48:07;2.90;;;1.60;;
10335;SDS011;5213;53.548;9.930;2023-08-08T06:50:33;1.95;;;1.70;;
10335;SDS011;5213;53.548;9.930;2023-08-08T06:52:59;2.90;;;1.70;;
10335;SDS011;5213;53.548;9.930;2023-08-08T06:55:25;1.60;;;1.48;;
10335;SDS011;5213;53.548;9.930;2023-08-08T06:57:51;2.35;;;1.63;;
10335;SDS011;5213;53.548;9.930;2023-08-08T07:00:17;1.83;;;1.50;;
10335;SDS011;5213;53.548;9.930;2023-08-08T07:02:43;2.45;;;1.45;;
10335;SDS011;5213;53.548;9.930;2023-08-08T07:05:09;1.60;;;1.48;;
10335;SDS011;5213;53.548;9.930;2023-08-08T07:07:35;2.55;;;1.60;;
10335;SDS011;5213;53.548;9.930;2023-08-08T07:10:02;1.95;;;1.50;;
10335;SDS011;5213;53.548;9.930;2023-08-08T07:12:28;4.07;;;1.60;;
10335;SDS011;5213;53.548;9.930;2023-08-08T07:14:54;2.40;;;1.50;;
10335;SDS011;5213;53.548;9.930;2023-08-08T07:17:20;2.83;;;1.42;;
10335;SDS011;5213;53.548;9.930;2023-08-08T07:19:46;1.70;;;1.40;;
10335;SDS011;5213;53.548;9.930;2023-08-08T07:22:12;1.75;;;1.42;;
10335;SDS011;5213;53.548;9.930;2023-08-08T07:24:38;1.30;;;1.20;;
10335;SDS011;5213;53.548;9.930;2023-08-08T07:27:04;1.58;;;1.35;;
10335;SDS011;5213;53.548;9.930;2023-08-08T07:29:31;5.50;;;1.75;;
10335;SDS011;5213;53.548;9.930;2023-08-08T07:31:57;4.22;;;1.50;;
10335;SDS011;5213;53.548;9.930;2023-08-08T07:34:23;4.20;;;1.70;;
10335;SDS011;5213;53.548;9.930;2023-08-08T07:36:50;4.43;;;1.52;;
10335;SDS011;5213;53.548;9.930;2023-08-08T07:39:16;3.75;;;1.50;;
10335;SDS011;5213;53.548;9.930;2023-08-08T07:41:42;2.42;;;1.38;;
10335;SDS011;5213;53.548;9.930;2023-08-08T07:44:08;2.40;;;1.60;;
10335;SDS011;5213;53.548;9.930;2023-08-08T07:46:34;2.67;;;1.75;;
10335;SDS011;5213;53.548;9.930;2023-08-08T07:49:00;4.57;;;1.70;;
10335;SDS011;5213;53.548;9.930;2023-08-08T07:51:28;3.28;;;1.70;;
10335;SDS011;5213;53.548;9.930;2023-08-08T07:53:54;2.05;;;1.52;;
10335;SDS011;5213;53.548;9.930;2023-08-08T07:56:20;4.13;;;1.70;;
10335;SDS011;5213;53.548;9.930;2023-08-08T07:58:46;4.47;;;1.77;;
10335;SDS011;5213;53.548;9.930;2023-08-08T08:01:12;2.92;;;1.70;;
10335;SDS011;5213;53.548;9.930;2023-08-08T08:03:39;3.95;;;1.52;;
10335;SDS011;5213;53.548;9.930;2023-08-08T08:06:05;5.03;;;1.77;;
10335;SDS011;5213;53.548;9.930;2023-08-08T08:08:32;2.75;;;1.55;;
10335;SDS011;5213;53.548;9.930;2023-08-08T08:10:58;4.35;;;1.60;;
10335;SDS011;5213;53.548;9.930;2023-08-08T08:13:24;5.22;;;1.73;;
10335;SDS011;5213;53.548;9.930;2023-08-08T08:15:50;3.83;;;1.80;;
10335;SDS011;5213;53.548;9.930;2023-08-08T08:18:16;3.78;;;1.50;;
10335;SDS011;5213;53.548;9.930;2023-08-08T08:20:42;3.72;;;1.90;;
10335;SDS011;5213;53.548;9.930;2023-08-08T08:23:08;4.53;;;2.00;;
10335;SDS011;5213;53.548;9.930;2023-08-08T08:25:35;2.70;;;1.50;;
10335;SDS011;5213;53.548;9.930;2023-08-08T08:28:01;3.83;;;1.65;;
10335;SDS011;5213;53.548;9.930;2023-08-08T08:30:27;3.00;;;1.25;;
10335;SDS011;5213;53.548;9.930;2023-08-08T08:32:53;4.10;;;1.67;;
10335;SDS011;5213;53.548;9.930;2023-08-08T08:35:19;3.00;;;1.60;;
10335;SDS011;5213;53.548;9.930;2023-08-08T08:37:45;2.10;;;1.70;;
10335;SDS011;5213;53.548;9.930;2023-08-08T08:40:11;1.98;;;1.40;;
10335;SDS011;5213;53.548;9.930;2023-08-08T08:42:38;2.30;;;1.45;;
10335;SDS011;5213;53.548;9.930;2023-08-08T08:45:05;1.30;;;1.20;;
10335;SDS011;5213;53.548;9.930;2023-08-08T08:47:32;2.58;;;1.40;;
10335;SDS011;5213;53.548;9.930;2023-08-08T08:49:59;2.08;;;1.20;;
10335;SDS011;5213;53.548;9.930;2023-08-08T08:52:27;1.88;;;1.30;;
10335;SDS011;5213;53.548;9.930;2023-08-08T08:54:53;3.15;;;1.40;;
10335;SDS011;5213;53.548;9.930;2023-08-08T08:57:22;2.22;;;1.20;;
10335;SDS011;5213;53.548;9.930;2023-08-08T08:59:49;1.30;;;1.17;;
10335;SDS011;5213;53.548;9.930;2023-08-08T09:02:15;2.25;;;1.20;;
10335;SDS011;5213;53.548;9.930;2023-08-08T09:04:42;1.17;;;1.00;;
10335;SDS011;5213;53.548;9.930;2023-08-08T09:07:08;1.38;;;1.05;;
10335;SDS011;5213;53.548;9.930;2023-08-08T09:09:35;1.70;;;1.10;;
10335;SDS011;5213;53.548;9.930;2023-08-08T09:12:03;2.70;;;1.05;;
10335;SDS011;5213;53.548;9.930;2023-08-08T09:14:30;1.35;;;1.05;;
10335;SDS011;5213;53.548;9.930;2023-08-08T09:16:56;1.58;;;1.20;;
10335;SDS011;5213;53.548;9.930;2023-08-08T09:19:22;1.00;;;1.00;;
10335;SDS011;5213;53.548;9.930;2023-08-08T09:21:49;2.50;;;1.20;;
10335;SDS011;5213;53.548;9.930;2023-08-08T09:24:15;2.08;;;1.08;;
10335;SDS011;5213;53.548;9.930;2023-08-08T09:26:41;1.80;;;1.10;;
10335;SDS011;5213;53.548;9.930;2023-08-08T09:29:08;1.40;;;0.98;;
10335;SDS011;5213;53.548;9.930;2023-08-08T09:31:34;3.13;;;1.30;;
10335;SDS011;5213;53.548;9.930;2023-08-08T09:34:01;0.90;;;0.90;;
10335;SDS011;5213;53.548;9.930;2023-08-08T09:36:28;1.27;;;1.10;;
10335;SDS011;5213;53.548;9.930;2023-08-08T09:38:54;1.25;;;1.08;;
10335;SDS011;5213;53.548;9.930;2023-08-08T09:41:23;1.45;;;0.98;;
10335;SDS011;5213;53.548;9.930;2023-08-08T09:43:50;1.50;;;1.30;;
10335;SDS011;5213;53.548;9.930;2023-08-08T09:46:16;2.95;;;1.20;;
10335;SDS011;5213;53.548;9.930;2023-08-08T09:48:43;2.33;;;1.20;;
10335;SDS011;5213;53.548;9.930;2023-08-08T09:51:10;1.95;;;1.25;;
10335;SDS011;5213;53.548;9.930;2023-08-08T09:53:36;3.00;;;1.15;;
10335;SDS011;5213;53.548;9.930;2023-08-08T09:56:03;1.27;;;1.05;;
10335;SDS011;5213;53.548;9.930;2023-08-08T09:58:30;4.03;;;1.20;;
10335;SDS011;5213;53.548;9.930;2023-08-08T10:00:56;1.75;;;1.13;;
10335;SDS011;5213;53.548;9.930;2023-08-08T10:03:22;1.52;;;1.10;;
10335;SDS011;5213;53.548;9.930;2023-08-08T10:05:48;2.35;;;0.80;;
10335;SDS011;5213;53.548;9.930;2023-08-08T10:08:14;2.13;;;1.15;;
10335;SDS011;5213;53.548;9.930;2023-08-08T10:10:41;2.85;;;1.10;;
10335;SDS011;5213;53.548;9.930;2023-08-08T10:13:08;4.15;;;1.23;;
10335;SDS011;5213;53.548;9.930;2023-08-08T10:15:38;4.55;;;1.52;;
10335;SDS011;5213;53.548;9.930;2023-08-08T10:18:05;3.70;;;1.55;;
10335;SDS011;5213;53.548;9.930;2023-08-08T10:20:32;1.67;;;1.20;;
10335;SDS011;5213;53.548;9.930;2023-08-08T10:23:02;4.38;;;1.30;;
10335;SDS011;5213;53.548;9.930;2023-08-08T10:25:30;3.47;;;1.20;;
10335;SDS011;5213;53.548;9.930;2023-08-08T10:28:07;2.42;;;1.40;;
10335;SDS011;5213;53.548;9.930;2023-08-08T10:30:47;2.03;;;1.50;;
10335;SDS011;5213;53.548;9.930;2023-08-08T10:38:22;1.88;;;1.50;;
10335;SDS011;5213;53.548;9.930;2023-08-08T10:40:53;2.58;;;1.50;;
10335;SDS011;5213;53.548;9.930;2023-08-08T10:43:24;2.63;;;1.30;;
10335;SDS011;5213;53.548;9.930;2023-08-08T10:45:53;2.63;;;1.25;;
10335;SDS011;5213;53.548;9.930;2023-08-08T10:48:22;2.08;;;1.02;;
10335;SDS011;5213;53.548;9.930;2023-08-08T10:50:48;3.05;;;1.23;;
10335;SDS011;5213;53.548;9.930;2023-08-08T10:53:14;2.22;;;1.30;;
10335;SDS011;5213;53.548;9.930;2023-08-08T10:55:40;2.17;;;1.35;;
10335;SDS011;5213;53.548;9.930;2023-08-08T10:58:07;1.42;;;1.10;;
10335;SDS011;5213;53.548;9.930;2023-08-08T11:00:37;1.95;;;1.10;;
10335;SDS011;5213;53.548;9.930;2023-08-08T11:03:04;4.00;;;1.30;;
10335;SDS011;5213;53.548;9.930;2023-08-08T11:05:32;2.20;;;1.00;;
10335;SDS011;5213;53.548;9.930;2023-08-08T11:07:58;1.52;;;1.10;;
10335;SDS011;5213;53.548;9.930;2023-08-08T11:10:24;1.17;;;1.02;;
10335;SDS011;5213;53.548;9.930;2023-08-08T11:13:02;1.15;;;0.82;;
10335;SDS011;5213;53.548;9.930;2023-08-08T11:15:29;1.10;;;1.00;;
10335;SDS011;5213;53.548;9.930;2023-08-08T11:17:55;1.75;;;1.00;;
10335;SDS011;5213;53.548;9.930;2023-08-08T11:20:22;1.60;;;1.30;;
10335;SDS011;5213;53.548;9.930;2023-08-08T11:22:52;2.00;;;1.13;;
10335;SDS011;5213;53.548;9.930;2023-08-08T11:25:19;2.47;;;1.25;;
10335;SDS011;5213;53.548;9.930;2023-08-08T11:27:49;1.65;;;1.20;;
10335;SDS011;5213;53.548;9.930;2023-08-08T11:30:16;1.40;;;1.00;;
10335;SDS011;5213;53.548;9.930;2023-08-08T11:32:42;5.50;;;1.33;;
10335;SDS011;5213;53.548;9.930;2023-08-08T11:35:08;2.15;;;1.20;;
10335;SDS011;5213;53.548;9.930;2023-08-08T11:37:34;1.30;;;1.20;;
10335;SDS011;5213;53.548;9.930;2023-08-08T11:40:00;1.75;;;1.20;;
10335;SDS011;5213;53.548;9.930;2023-08-08T11:42:26;1.98;;;1.48;;
10335;SDS011;5213;53.548;9.930;2023-08-08T11:44:53;3.28;;;1.15;;
10335;SDS011;5213;53.548;9.930;2023-08-08T11:47:24;2.45;;;1.48;;
10335;SDS011;5213;53.548;9.930;2023-08-08T11:49:51;2.38;;;1.10;;
10335;SDS011;5213;53.548;9.930;2023-08-08T11:52:18;1.38;;;1.15;;
10335;SDS011;5213;53.548;9.930;2023-08-08T11:54:49;3.58;;;1.20;;
10335;SDS011;5213;53.548;9.930;2023-08-08T11:57:17;2.38;;;1.20;;
10335;SDS011;5213;53.548;9.930;2023-08-08T11:59:43;2.35;;;1.38;;
10335;SDS011;5213;53.548;9.930;2023-08-08T12:02:09;1.10;;;1.00;;
10335;SDS011;5213;53.548;9.930;2023-08-08T12:04:35;1.95;;;1.10;;
10335;SDS011;5213;53.548;9.930;2023-08-08T12:07:01;1.42;;;1.33;;
10335;SDS011;5213;53.548;9.930;2023-08-08T12:09:31;2.65;;;1.23;;
10335;SDS011;5213;53.548;9.930;2023-08-08T12:12:01;1.48;;;1.30;;
10335;SDS011;5213;53.548;9.930;2023-08-08T12:14:27;2.20;;;1.23;;
10335;SDS011;5213;53.548;9.930;2023-08-08T12:16:54;2.13;;;1.10;;
10335;SDS011;5213;53.548;9.930;2023-08-08T12:19:22;2.38;;;1.23;;
10335;SDS011;5213;53.548;9.930;2023-08-08T12:21:48;1.38;;;1.27;;
10335;SDS011;5213;53.548;9.930;2023-08-08T12:24:14;3.75;;;1.20;;
10335;SDS011;5213;53.548;9.930;2023-08-08T12:26:40;3.70;;;1.25;;
10335;SDS011;5213;53.548;9.930;2023-08-08T12:29:06;3.03;;;1.08;;
10335;SDS011;5213;53.548;9.930;2023-08-08T12:31:32;2.55;;;1.23;;
10335;SDS011;5213;53.548;9.930;2023-08-08T12:33:58;2.65;;;1.20;;
10335;SDS011;5213;53.548;9.930;2023-08-08T12:36:24;2.72;;;1.50;;
10335;SDS011;5213;53.548;9.930;2023-08-08T12:38:50;3.85;;;1.30;;
10335;SDS011;5213;53.548;9.930;2023-08-08T12:41:16;2.70;;;1.38;;
10335;SDS011;5213;53.548;9.930;2023-08-08T12:43:42;5.32;;;1.70;;
10335;SDS011;5213;53.548;9.930;2023-08-08T12:46:08;2.97;;;1.35;;
10335;SDS011;5213;53.548;9.930;2023-08-08T12:48:34;3.65;;;1.20;;
10335;SDS011;5213;53.548;9.930;2023-08-08T12:51:00;3.30;;;1.50;;
10335;SDS011;5213;53.548;9.930;2023-08-08T12:53:26;3.97;;;1.45;;
10335;SDS011;5213;53.548;9.930;2023-08-08T12:55:52;3.75;;;1.50;;
10335;SDS011;5213;53.548;9.930;2023-08-08T12:58:19;4.20;;;1.75;;
10335;SDS011;5213;53.548;9.930;2023-08-08T13:00:45;3.72;;;1.42;;
10335;SDS011;5213;53.548;9.930;2023-08-08T13:03:11;3.97;;;1.58;;
10335;SDS011;5213;53.548;9.930;2023-08-08T13:05:37;3.60;;;1.40;;
10335;SDS011;5213;53.548;9.930;2023-08-08T13:08:04;4.10;;;1.80;;
10335;SDS011;5213;53.548;9.930;2023-08-08T13:10:30;5.68;;;1.80;;
10335;SDS011;5213;53.548;9.930;2023-08-08T13:12:56;4.90;;;1.77;;
10335;SDS011;5213;53.548;9.930;2023-08-08T13:15:22;3.25;;;2.03;;
10335;SDS011;5213;53.548;9.930;2023-08-08T13:17:48;4.90;;;2.40;;
10335;SDS011;5213;53.548;9.930;2023-08-08T13:20:14;7.45;;;2.00;;
10335;SDS011;5213;53.548;9.930;2023-08-08T13:22:40;7.45;;;2.08;;
10335;SDS011;5213;53.548;9.930;2023-08-08T13:25:07;4.25;;;1.67;;
10335;SDS011;5213;53.548;9.930;2023-08-08T13:27:33;8.55;;;1.98;;
10335;SDS011;5213;53.548;9.930;2023-08-08T13:29:59;4.15;;;2.10;;
10335;SDS011;5213;53.548;9.930;2023-08-08T13:32:25;4.93;;;1.88;;
10335;SDS011;5213;53.548;9.930;2023-08-08T13:34:51;4.45;;;1.92;;
10335;SDS011;5213;53.548;9.930;2023-08-08T13:37:17;3.72;;;2.00;;
10335;SDS011;5213;53.548;9.930;2023-08-08T13:39:43;3.78;;;2.30;;
10335;SDS011;5213;53.548;9.930;2023-08-08T13:42:10;4.07;;;1.83;;
10335;SDS011;5213;53.548;9.930;2023-08-08T13:44:36;5.47;;;2.30;;
10335;SDS011;5213;53.548;9.930;2023-08-08T13:47:02;4.88;;;1.85;;
10335;SDS011;5213;53.548;9.930;2023-08-08T13:49:28;5.07;;;1.98;;
10335;SDS011;5213;53.548;9.930;2023-08-08T13:51:54;7.13;;;1.77;;
10335;SDS011;5213;53.548;9.930;2023-08-08T13:54:20;5.10;;;1.63;;
10335;SDS011;5213;53.548;9.930;2023-08-08T13:56:46;2.70;;;1.35;;
10335;SDS011;5213;53.548;9.930;2023-08-08T13:59:12;4.97;;;1.90;;
10335;SDS011;5213;53.548;9.930;2023-08-08T14:01:39;6.13;;;1.83;;
10335;SDS011;5213;53.548;9.930;2023-08-08T14:04:05;4.07;;;1.83;;
10335;SDS011;5213;53.548;9.930;2023-08-08T14:06:31;5.07;;;1.75;;
10335;SDS011;5213;53.548;9.930;2023-08-08T14:08:57;6.00;;;1.50;;
10335;SDS011;5213;53.548;9.930;2023-08-08T14:11:23;8.88;;;2.10;;
10335;SDS011;5213;53.548;9.930;2023-08-08T14:13:49;3.38;;;1.58;;
10335;SDS011;5213;53.548;9.930;2023-08-08T14:16:15;4.57;;;1.80;;
10335;SDS011;5213;53.548;9.930;2023-08-08T14:18:41;5.35;;;1.80;;
10335;SDS011;5213;53.548;9.930;2023-08-08T14:21:07;3.83;;;1.67;;
10335;SDS011;5213;53.548;9.930;2023-08-08T14:23:33;6.47;;;1.80;;
10335;SDS011;5213;53.548;9.930;2023-08-08T14:25:59;4.10;;;1.60;;
10335;SDS011;5213;53.548;9.930;2023-08-08T14:28:25;3.78;;;1.58;;
10335;SDS011;5213;53.548;9.930;2023-08-08T14:30:51;6.28;;;2.08;;
10335;SDS011;5213;53.548;9.930;2023-08-08T14:33:17;4.45;;;1.73;;
10335;SDS011;5213;53.548;9.930;2023-08-08T14:35:43;4.15;;;1.63;;
10335;SDS011;5213;53.548;9.930;2023-08-08T14:38:09;5.18;;;1.80;;
10335;SDS011;5213;53.548;9.930;2023-08-08T14:40:41;5.00;;;1.67;;
10335;SDS011;5213;53.548;9.930;2023-08-08T14:43:08;4.75;;;1.67;;
10335;SDS011;5213;53.548;9.930;2023-08-08T14:45:37;5.50;;;1.67;;
10335;SDS011;5213;53.548;9.930;2023-08-08T14:48:03;8.18;;;1.77;;
10335;SDS011;5213;53.548;9.930;2023-08-08T14:50:30;3.72;;;1.50;;
10335;SDS011;5213;53.548;9.930;2023-08-08T14:52:56;3.60;;;1.30;;
10335;SDS011;5213;53.548;9.930;2023-08-08T14:55:22;4.90;;;1.38;;
10335;SDS011;5213;53.548;9.930;2023-08-08T14:57:48;4.63;;;1.67;;
10335;SDS011;5213;53.548;9.930;2023-08-08T15:00:14;3.28;;;1.40;;
10335;SDS011;5213;53.548;9.930;2023-08-08T15:02:40;3.05;;;1.55;;